Time;durP1;ratioP1;P1;durP2;ratioP2;P2;SDS_P1;SDS_P2;PMS_P1;PMS_P2;Temp;Humidity;BMP_temperature;BMP_pressure;BME280_temperature;BME280_humidity;BME280_pressure;Samples;Min_cycle;Max_cycle;Signal;HPM_P1;HPM_P2
2023/12/18 00:01:07;;;;;;;48.63;21.17;;;7.40;99.90;;;;;;5029944;28;20391;-63
2023/12/18 00:03:33;;;;;;;37.83;21.05;;;7.40;99.90;;;;;;5029859;28;20035;-63
2023/12/18 00:05:58;;;;;;;36.00;20.43;;;7.40;99.90;;;;;;5029890;28;20033;-64
2023/12/18 00:08:24;;;;;;;39.57;21.10;;;7.40;99.90;;;;;;5031910;28;20091;-64
2023/12/18 00:10:49;;;;;;;36.47;19.77;;;7.40;99.90;;;;;;5028046;28;20057;-63
2023/12/18 00:13:15;;;;;;;39.97;20.30;;;7.40;99.90;;;;;;5028231;28;20399;-63
2023/12/18 00:15:41;;;;;;;36.03;18.48;;;7.40;99.90;;;;;;5027681;28;20064;-64
2023/12/18 00:18:07;;;;;;;49.35;19.88;;;7.40;99.90;;;;;;5030133;28;20037;-63
2023/12/18 00:20:33;;;;;;;37.58;20.02;;;7.40;99.90;;;;;;5028802;28;20397;-64
2023/12/18 00:22:58;;;;;;;37.70;20.17;;;7.50;99.90;;;;;;5021495;28;20037;-64
2023/12/18 00:25:25;;;;;;;39.53;19.00;;;7.50;99.90;;;;;;5028910;28;20061;-64
2023/12/18 00:27:50;;;;;;;35.35;21.35;;;7.50;99.90;;;;;;5029692;28;20526;-63
2023/12/18 00:30:16;;;;;;;44.80;22.33;;;7.50;99.90;;;;;;5025490;28;20066;-64
2023/12/18 00:32:41;;;;;;;40.95;20.27;;;7.50;99.90;;;;;;5028611;28;20037;-63
2023/12/18 00:35:07;;;;;;;49.07;22.93;;;7.50;99.90;;;;;;5028705;28;20048;-63
2023/12/18 00:37:33;;;;;;;35.50;21.58;;;7.50;99.90;;;;;;5028348;28;20846;-63
2023/12/18 00:39:58;;;;;;;43.67;21.43;;;7.50;99.90;;;;;;5028554;28;20116;-63
2023/12/18 00:42:25;;;;;;;36.03;22.37;;;7.40;99.90;;;;;;5028887;28;20037;-64
2023/12/18 00:44:50;;;;;;;42.35;22.48;;;7.40;99.90;;;;;;5028012;28;21277;-64
2023/12/18 00:47:18;;;;;;;42.80;21.40;;;7.40;99.90;;;;;;5028749;28;20037;-64
2023/12/18 00:49:43;;;;;;;37.10;21.77;;;7.40;99.90;;;;;;5029414;28;20068;-63
2023/12/18 00:52:09;;;;;;;41.17;20.83;;;7.40;99.90;;;;;;5026083;28;20080;-63
2023/12/18 00:54:35;;;;;;;47.35;23.55;;;7.40;99.90;;;;;;5026422;28;20033;-64
2023/12/18 00:57:00;;;;;;;48.47;23.40;;;7.40;99.90;;;;;;5030625;28;20039;-64
2023/12/18 00:59:26;;;;;;;48.10;23.10;;;7.40;99.90;;;;;;5033756;28;20299;-64
2023/12/18 01:01:52;;;;;;;38.30;21.73;;;7.40;99.90;;;;;;5029700;28;20034;-63
2023/12/18 01:04:17;;;;;;;42.80;23.33;;;7.40;99.90;;;;;;5028402;28;20132;-64
2023/12/18 01:06:43;;;;;;;41.73;22.57;;;7.40;99.90;;;;;;5028521;28;20456;-64
2023/12/18 01:09:09;;;;;;;41.78;24.77;;;7.40;99.90;;;;;;5028256;28;20045;-64
2023/12/18 01:11:35;;;;;;;37.70;22.90;;;7.40;99.90;;;;;;5028366;28;20086;-64
2023/12/18 01:14:01;;;;;;;46.13;23.60;;;7.30;99.90;;;;;;5028048;28;20041;-64
2023/12/18 01:16:26;;;;;;;37.23;21.80;;;7.30;99.90;;;;;;5028363;28;20075;-64
2023/12/18 01:18:52;;;;;;;42.20;23.50;;;7.40;99.90;;;;;;5027371;28;20095;-63
2023/12/18 01:21:18;;;;;;;42.57;22.83;;;7.40;99.90;;;;;;5028695;28;20034;-64
2023/12/18 01:23:43;;;;;;;57.83;24.13;;;7.30;99.90;;;;;;5023018;28;20037;-64
2023/12/18 01:26:09;;;;;;;47.40;24.27;;;7.40;99.90;;;;;;5028325;28;20036;-63
2023/12/18 01:28:34;;;;;;;43.10;23.73;;;7.40;99.90;;;;;;5027619;28;20523;-64
2023/12/18 01:31:00;;;;;;;44.33;22.67;;;7.40;99.90;;;;;;5026154;28;20034;-64
2023/12/18 01:33:26;;;;;;;47.67;23.52;;;7.40;99.90;;;;;;5026337;28;21166;-64
2023/12/18 01:35:51;;;;;;;32.77;20.90;;;7.40;99.90;;;;;;5028110;28;20037;-64
2023/12/18 01:38:17;;;;;;;41.90;22.77;;;7.40;99.90;;;;;;5028158;28;20127;-63
2023/12/18 01:40:44;;;;;;;42.13;23.27;;;7.40;99.90;;;;;;5028036;28;20511;-64
2023/12/18 01:43:23;;;;;;;44.88;23.58;;;7.40;99.90;;;;;;5027458;28;20800;-64
2023/12/18 01:46:01;;;;;;;41.60;23.52;;;7.40;99.90;;;;;;5025944;28;20064;-64
2023/12/18 01:48:29;;;;;;;46.80;22.90;;;7.40;99.90;;;;;;5027865;28;20184;-64
2023/12/18 01:50:57;;;;;;;44.47;23.92;;;7.40;99.90;;;;;;5028078;28;20095;-64
2023/12/18 01:53:36;;;;;;;50.33;23.75;;;7.40;99.90;;;;;;5027472;28;20309;-63
2023/12/18 01:56:02;;;;;;;39.30;24.48;;;7.40;99.90;;;;;;5027760;28;20179;-64
2023/12/18 01:58:31;;;;;;;45.97;24.40;;;7.40;99.90;;;;;;5027897;28;20060;-64
2023/12/18 02:00:58;;;;;;;40.28;22.63;;;7.40;99.90;;;;;;5027147;28;20109;-64
2023/12/18 02:03:24;;;;;;;43.95;25.17;;;7.40;99.90;;;;;;5027092;28;20045;-63
2023/12/18 02:05:49;;;;;;;39.22;23.30;;;7.40;99.90;;;;;;5027586;28;20033;-64
2023/12/18 02:08:15;;;;;;;45.95;26.08;;;7.40;99.90;;;;;;5043208;28;20035;-64
2023/12/18 02:10:42;;;;;;;41.97;24.47;;;7.40;99.90;;;;;;5027297;28;20038;-64
2023/12/18 02:13:07;;;;;;;44.10;25.00;;;7.40;99.90;;;;;;5028786;28;20435;-63
2023/12/18 02:15:33;;;;;;;42.08;24.13;;;7.40;99.90;;;;;;5030355;28;20037;-64
2023/12/18 02:17:59;;;;;;;49.25;24.90;;;7.30;99.90;;;;;;5031243;28;20128;-64
2023/12/18 02:20:25;;;;;;;40.87;24.33;;;7.40;99.90;;;;;;5032255;28;20025;-64
2023/12/18 02:22:51;;;;;;;49.63;26.20;;;7.40;99.90;;;;;;5025848;28;20103;-64
2023/12/18 02:25:17;;;;;;;49.95;25.80;;;7.40;99.90;;;;;;5031643;28;20296;-63
2023/12/18 02:27:50;;;;;;;53.17;27.13;;;7.40;99.90;;;;;;5031455;28;20042;-63
2023/12/18 02:30:17;;;;;;;45.03;25.45;;;7.40;99.90;;;;;;5029331;28;20105;-64
2023/12/18 02:32:43;;;;;;;49.00;25.55;;;7.40;99.90;;;;;;5032714;28;20453;-64
2023/12/18 02:35:09;;;;;;;50.22;27.00;;;7.40;99.90;;;;;;5030969;28;20512;-64
2023/12/18 02:37:35;;;;;;;54.67;27.48;;;7.40;99.90;;;;;;5031145;28;20038;-64
2023/12/18 02:40:01;;;;;;;55.28;27.08;;;7.40;99.90;;;;;;5030008;28;20482;-64
2023/12/18 02:42:27;;;;;;;44.42;26.38;;;7.40;99.90;;;;;;5031090;28;20038;-64
2023/12/18 02:44:54;;;;;;;43.13;26.03;;;7.40;99.90;;;;;;5031136;28;20053;-63
2023/12/18 02:47:19;;;;;;;40.83;25.75;;;7.40;99.90;;;;;;5030767;28;20048;-63
2023/12/18 02:49:45;;;;;;;47.97;25.48;;;7.40;99.90;;;;;;5030485;28;20033;-63
2023/12/18 02:52:11;;;;;;;45.53;24.27;;;7.40;99.90;;;;;;5031918;28;20119;-63
2023/12/18 02:54:37;;;;;;;48.83;25.33;;;7.40;99.90;;;;;;5030983;28;20038;-64
2023/12/18 02:57:03;;;;;;;42.08;23.70;;;7.40;99.90;;;;;;5029479;28;20107;-63
2023/12/18 02:59:29;;;;;;;42.60;24.95;;;7.40;99.90;;;;;;5030212;28;20033;-63
2023/12/18 03:01:54;;;;;;;43.97;23.97;;;7.40;99.90;;;;;;5030321;28;20033;-64
2023/12/18 03:04:20;;;;;;;40.00;24.47;;;7.40;99.90;;;;;;5031227;28;20370;-64
2023/12/18 03:06:46;;;;;;;53.77;27.17;;;7.40;99.90;;;;;;5030410;28;20052;-63
2023/12/18 03:09:12;;;;;;;49.78;25.42;;;7.40;99.90;;;;;;5030156;28;20296;-64
2023/12/18 03:11:42;;;;;;;40.22;24.95;;;7.40;99.90;;;;;;5029796;28;20037;-63
2023/12/18 03:14:09;;;;;;;46.53;24.60;;;7.40;99.90;;;;;;5029759;28;20349;-64
2023/12/18 03:16:34;;;;;;;47.10;27.02;;;7.40;99.90;;;;;;5030109;28;20603;-63
2023/12/18 03:19:00;;;;;;;43.40;25.57;;;7.40;99.90;;;;;;5029767;28;20132;-63
2023/12/18 03:21:26;;;;;;;51.00;26.52;;;7.40;99.90;;;;;;5031387;28;20432;-64
2023/12/18 03:23:51;;;;;;;53.07;26.10;;;7.40;99.90;;;;;;5023386;28;20045;-63
2023/12/18 03:26:17;;;;;;;41.93;24.37;;;7.40;99.90;;;;;;5030361;28;20030;-63
2023/12/18 03:28:43;;;;;;;49.10;24.23;;;7.40;99.90;;;;;;5031010;28;20037;-63
2023/12/18 03:31:10;;;;;;;41.63;25.02;;;7.40;99.90;;;;;;5029933;28;20036;-63
2023/12/18 03:33:36;;;;;;;47.85;25.25;;;7.40;99.90;;;;;;5030059;28;20029;-64
2023/12/18 03:36:03;;;;;;;46.45;25.17;;;7.40;99.90;;;;;;5030636;28;20582;-64
2023/12/18 03:38:28;;;;;;;48.90;26.52;;;7.40;99.90;;;;;;5030572;28;20144;-63
2023/12/18 03:40:54;;;;;;;41.03;25.40;;;7.40;99.90;;;;;;5030160;28;20114;-64
2023/12/18 03:43:20;;;;;;;42.20;25.87;;;7.40;99.90;;;;;;5029330;28;20033;-63
2023/12/18 03:45:45;;;;;;;41.10;24.37;;;7.30;99.90;;;;;;5028610;28;20045;-64
2023/12/18 03:48:11;;;;;;;48.83;25.73;;;7.40;99.90;;;;;;5028537;28;20037;-64
2023/12/18 03:50:36;;;;;;;36.07;24.73;;;7.40;99.90;;;;;;5028797;28;20068;-64
2023/12/18 03:53:02;;;;;;;48.58;24.83;;;7.40;99.90;;;;;;5028252;28;20056;-63
2023/12/18 03:55:28;;;;;;;39.63;24.17;;;7.40;99.90;;;;;;5029504;28;20456;-63
2023/12/18 03:57:53;;;;;;;45.13;24.70;;;7.30;99.90;;;;;;5029392;28;20037;-64
2023/12/18 04:00:20;;;;;;;39.35;24.58;;;7.30;99.90;;;;;;5029679;28;20404;-64
2023/12/18 04:02:46;;;;;;;37.28;23.70;;;7.30;99.90;;;;;;5029383;28;20059;-64
2023/12/18 04:05:11;;;;;;;40.72;22.65;;;7.30;99.90;;;;;;5029575;28;20568;-63
2023/12/18 04:07:37;;;;;;;50.93;25.40;;;7.30;99.90;;;;;;5029670;28;20133;-64
2023/12/18 04:10:03;;;;;;;44.27;26.30;;;7.30;99.90;;;;;;5028664;28;20029;-64
2023/12/18 04:12:29;;;;;;;44.53;24.15;;;7.30;99.90;;;;;;5029409;28;20043;-64
2023/12/18 04:14:54;;;;;;;43.83;25.20;;;7.20;99.90;;;;;;5027526;28;20492;-63
2023/12/18 04:17:20;;;;;;;40.27;24.47;;;7.20;99.90;;;;;;5029067;28;20049;-63
2023/12/18 04:19:45;;;;;;;43.93;24.77;;;7.20;99.90;;;;;;5029483;28;20271;-64
2023/12/18 04:22:11;;;;;;;42.30;22.30;;;7.20;99.90;;;;;;5029278;28;20493;-64
2023/12/18 04:24:37;;;;;;;38.07;22.93;;;7.20;99.90;;;;;;5023805;28;20072;-64
2023/12/18 04:27:02;;;;;;;41.97;25.47;;;7.20;99.90;;;;;;5029300;28;20420;-64
2023/12/18 04:29:28;;;;;;;34.50;22.20;;;7.10;99.90;;;;;;5029486;28;20037;-64
2023/12/18 04:31:54;;;;;;;42.15;23.75;;;7.10;99.90;;;;;;5029149;28;20029;-64
2023/12/18 04:34:19;;;;;;;41.03;25.03;;;7.10;99.90;;;;;;5028027;28;20116;-63
2023/12/18 04:36:45;;;;;;;41.97;22.60;;;7.10;99.90;;;;;;5028328;28;20039;-64
2023/12/18 04:39:11;;;;;;;40.80;25.10;;;7.10;99.90;;;;;;5029624;28;20583;-63
2023/12/18 04:41:36;;;;;;;45.15;24.77;;;7.10;99.90;;;;;;5028999;28;20045;-64
2023/12/18 04:44:02;;;;;;;35.50;22.43;;;7.10;99.90;;;;;;5028214;28;20508;-63
2023/12/18 04:46:34;;;;;;;37.15;23.45;;;7.10;99.90;;;;;;5027344;28;20069;-64
2023/12/18 04:48:59;;;;;;;42.88;24.67;;;7.10;99.90;;;;;;5028803;28;20486;-64
2023/12/18 04:51:25;;;;;;;42.43;23.80;;;7.10;99.90;;;;;;5027226;28;20108;-64
2023/12/18 04:53:50;;;;;;;41.60;24.80;;;7.10;99.90;;;;;;5027808;28;20045;-64
2023/12/18 04:56:16;;;;;;;39.70;23.67;;;7.10;99.90;;;;;;5027551;28;20068;-64
2023/12/18 04:58:41;;;;;;;37.43;22.70;;;7.10;99.90;;;;;;5028457;28;20049;-64
2023/12/18 05:01:09;;;;;;;39.00;23.97;;;7.10;99.90;;;;;;5028336;28;20033;-64
2023/12/18 05:03:35;;;;;;;38.17;23.23;;;7.10;99.90;;;;;;5027663;28;20501;-63
2023/12/18 05:06:01;;;;;;;43.00;23.00;;;7.10;99.90;;;;;;5027132;28;20048;-64
2023/12/18 05:08:26;;;;;;;38.58;23.15;;;7.10;99.90;;;;;;5029270;28;20041;-64
2023/12/18 05:10:52;;;;;;;41.10;22.50;;;7.10;99.90;;;;;;5026855;28;20091;-64
2023/12/18 05:13:17;;;;;;;40.17;23.23;;;7.10;99.90;;;;;;5028392;28;20083;-64
2023/12/18 05:15:43;;;;;;;43.37;24.30;;;7.10;99.90;;;;;;5028833;28;20044;-64
2023/12/18 05:18:09;;;;;;;39.60;21.90;;;7.10;99.90;;;;;;5029049;28;20084;-64
2023/12/18 05:20:34;;;;;;;49.60;24.83;;;7.10;99.90;;;;;;5027856;28;20048;-64
2023/12/18 05:23:00;;;;;;;41.80;22.93;;;7.10;99.90;;;;;;5028008;28;20072;-63
2023/12/18 05:25:25;;;;;;;40.23;23.13;;;7.10;99.90;;;;;;5022711;28;20033;-64
2023/12/18 05:27:51;;;;;;;42.03;24.63;;;7.10;99.90;;;;;;5028105;28;20180;-63
2023/12/18 05:30:17;;;;;;;42.03;22.23;;;7.10;99.90;;;;;;5029000;28;20408;-64
2023/12/18 05:32:42;;;;;;;42.05;23.67;;;7.10;99.90;;;;;;5030295;28;20037;-63
2023/12/18 05:35:08;;;;;;;38.33;23.90;;;7.20;99.90;;;;;;5029746;28;20058;-64
2023/12/18 05:37:34;;;;;;;43.28;23.50;;;7.20;99.90;;;;;;5029657;28;20051;-64
2023/12/18 05:39:59;;;;;;;34.53;21.50;;;7.20;99.90;;;;;;5030365;28;20033;-64
2023/12/18 05:42:25;;;;;;;36.33;23.47;;;7.20;99.90;;;;;;5029527;28;20404;-64
2023/12/18 05:44:50;;;;;;;37.63;23.27;;;7.20;99.90;;;;;;5028640;28;20037;-65
2023/12/18 05:47:16;;;;;;;41.10;23.53;;;7.20;99.90;;;;;;5027430;28;20033;-64
2023/12/18 05:49:41;;;;;;;35.60;22.97;;;7.20;99.90;;;;;;5027896;28;20041;-65
2023/12/18 05:52:07;;;;;;;41.23;23.67;;;7.20;99.90;;;;;;5027763;28;20069;-64
2023/12/18 05:54:32;;;;;;;41.03;24.13;;;7.20;99.90;;;;;;5027400;28;20079;-64
2023/12/18 05:56:58;;;;;;;39.33;22.87;;;7.20;99.90;;;;;;5027476;28;20046;-64
2023/12/18 05:59:24;;;;;;;41.47;23.00;;;7.20;99.90;;;;;;5027659;28;20175;-64
2023/12/18 06:01:49;;;;;;;37.50;22.13;;;7.20;99.90;;;;;;5027709;28;20029;-64
2023/12/18 06:04:15;;;;;;;40.23;23.23;;;7.20;99.90;;;;;;5028580;28;20116;-63
2023/12/18 06:06:40;;;;;;;41.77;21.90;;;7.30;99.90;;;;;;5027242;28;20041;-64
2023/12/18 06:09:06;;;;;;;48.17;23.43;;;7.30;99.90;;;;;;5026181;28;20052;-64
2023/12/18 06:11:33;;;;;;;34.90;22.47;;;7.30;99.90;;;;;;5027611;28;20103;-64
2023/12/18 06:13:59;;;;;;;34.58;22.77;;;7.30;99.90;;;;;;5026929;28;20108;-64
2023/12/18 06:16:24;;;;;;;36.07;22.07;;;7.30;99.90;;;;;;5027847;28;20128;-64
2023/12/18 06:18:50;;;;;;;39.27;23.27;;;7.30;99.90;;;;;;5027009;28;20436;-64
2023/12/18 06:21:15;;;;;;;32.50;21.80;;;7.30;99.90;;;;;;5027748;28;20049;-64
2023/12/18 06:23:44;;;;;;;39.13;21.93;;;7.30;99.90;;;;;;5027336;28;20037;-64
2023/12/18 06:26:10;;;;;;;41.13;23.48;;;7.40;99.90;;;;;;5029649;28;20680;-64
2023/12/18 06:28:35;;;;;;;34.57;22.07;;;7.40;99.90;;;;;;5027204;28;20124;-64
2023/12/18 06:31:01;;;;;;;43.27;22.27;;;7.40;99.90;;;;;;5027052;28;20033;-65
2023/12/18 06:33:26;;;;;;;32.43;21.17;;;7.40;99.90;;;;;;5029699;28;20068;-64
2023/12/18 06:35:52;;;;;;;36.90;22.00;;;7.40;99.90;;;;;;5027202;28;20053;-64
2023/12/18 06:38:18;;;;;;;41.03;22.33;;;7.50;99.90;;;;;;5027009;28;20056;-64
2023/12/18 06:40:43;;;;;;;41.00;22.87;;;7.50;99.90;;;;;;5027226;28;20040;-64
2023/12/18 06:43:09;;;;;;;36.73;22.63;;;7.50;99.90;;;;;;5022273;28;20041;-65
2023/12/18 06:45:35;;;;;;;37.28;22.48;;;7.50;99.90;;;;;;5027195;28;20084;-65
2023/12/18 06:48:00;;;;;;;34.83;22.70;;;7.50;99.90;;;;;;5026895;28;20037;-64
2023/12/18 06:50:26;;;;;;;43.25;23.02;;;7.50;99.90;;;;;;5026426;28;20284;-65
2023/12/18 06:52:53;;;;;;;40.95;23.60;;;7.50;99.90;;;;;;5025676;28;20611;-64
2023/12/18 06:55:19;;;;;;;;;;;7.50;99.90;;;;;;5027221;28;20500;-64
2023/12/18 06:57:44;;;;;;;40.00;22.92;;;7.50;99.90;;;;;;5027463;28;20688;-64
2023/12/18 07:00:11;;;;;;;47.57;23.23;;;7.50;99.90;;;;;;5026978;28;20050;-64
2023/12/18 07:02:36;;;;;;;;;;;7.50;99.90;;;;;;5025430;28;20041;-64
2023/12/18 07:05:02;;;;;;;43.28;23.25;;;7.50;99.90;;;;;;5029845;28;20147;-64
2023/12/18 07:07:28;;;;;;;37.90;24.52;;;7.40;99.90;;;;;;5031140;28;20416;-65
2023/12/18 07:09:53;;;;;;;37.10;22.80;;;7.40;99.90;;;;;;5030401;28;20041;-64
2023/12/18 07:12:19;;;;;;;43.23;24.53;;;7.40;99.90;;;;;;5030305;28;20034;-63
2023/12/18 07:14:45;;;;;;;34.80;24.07;;;7.40;99.90;;;;;;5030359;28;20276;-65
2023/12/18 07:17:10;;;;;;;41.40;23.77;;;7.40;99.90;;;;;;5028910;28;20151;-64
2023/12/18 07:19:42;;;;;;;40.37;23.97;;;7.40;99.90;;;;;;5027514;28;20041;-65
2023/12/18 07:22:07;;;;;;;44.13;25.60;;;7.40;99.90;;;;;;5023991;28;20041;-64
2023/12/18 07:24:33;;;;;;;39.70;24.47;;;7.40;99.90;;;;;;5023438;28;20053;-64
2023/12/18 07:27:00;;;;;;;41.93;24.80;;;7.40;99.90;;;;;;5027701;28;20092;-65
2023/12/18 07:29:25;;;;;;;;;;;7.40;99.90;;;;;;5029279;28;20399;-65
2023/12/18 07:31:51;;;;;;;39.85;24.02;;;7.40;99.90;;;;;;5029315;28;19921;-64
2023/12/18 07:34:16;;;;;;;47.72;27.90;;;7.30;99.90;;;;;;5028455;28;20041;-64
2023/12/18 07:36:42;;;;;;;45.30;25.60;;;7.30;99.90;;;;;;5030467;28;20072;-64
2023/12/18 07:39:08;;;;;;;44.43;25.67;;;7.30;99.90;;;;;;5024712;28;20401;-65
2023/12/18 07:41:34;;;;;;;52.90;27.05;;;7.30;99.90;;;;;;5029920;28;20049;-65
2023/12/18 07:44:00;;;;;;;51.53;26.70;;;7.30;99.90;;;;;;5029927;28;20038;-64
2023/12/18 07:46:27;;;;;;;41.15;26.70;;;7.30;99.90;;;;;;5025613;28;20053;-65
2023/12/18 07:48:53;;;;;;;48.67;27.20;;;7.30;99.90;;;;;;5029489;28;20095;-65
2023/12/18 07:51:19;;;;;;;45.33;26.30;;;7.30;99.90;;;;;;5029584;28;20080;-64
2023/12/18 07:53:44;;;;;;;46.03;26.85;;;7.30;99.90;;;;;;5029796;28;20061;-64
2023/12/18 07:56:10;;;;;;;36.95;25.15;;;7.30;99.90;;;;;;5029354;28;20041;-65
2023/12/18 07:58:36;;;;;;;46.78;27.48;;;7.30;99.90;;;;;;5028492;28;20029;-64
2023/12/18 08:01:03;;;;;;;39.80;27.80;;;7.30;99.90;;;;;;5029138;28;20040;-64
2023/12/18 08:03:29;;;;;;;45.75;26.98;;;7.30;99.90;;;;;;5029622;28;20067;-64
2023/12/18 08:05:55;;;;;;;46.83;26.67;;;7.40;99.90;;;;;;5017765;28;20034;-64
2023/12/18 08:08:20;;;;;;;39.27;26.47;;;7.30;99.90;;;;;;5021702;28;20041;-66
2023/12/18 08:10:46;;;;;;;44.37;26.97;;;7.40;99.90;;;;;;5022415;28;20029;-63
2023/12/18 08:13:12;;;;;;;46.83;28.95;;;7.30;99.90;;;;;;5025922;28;20072;-63
2023/12/18 08:15:37;;;;;;;50.33;27.20;;;7.30;99.90;;;;;;5021389;28;20044;-64
2023/12/18 08:18:03;;;;;;;52.23;29.43;;;7.30;99.90;;;;;;5026420;28;20424;-64
2023/12/18 08:20:29;;;;;;;48.13;29.70;;;7.30;99.90;;;;;;5027044;28;20038;-64
2023/12/18 08:22:54;;;;;;;47.37;28.27;;;7.40;99.90;;;;;;5026725;28;20037;-64
2023/12/18 08:25:21;;;;;;;48.70;29.07;;;7.40;99.90;;;;;;5021644;28;20504;-64
2023/12/18 08:27:46;;;;;;;;;;;7.40;99.90;;;;;;5025774;28;20037;-64
2023/12/18 08:30:12;;;;;;;50.05;28.38;;;7.40;99.90;;;;;;5023469;28;20407;-63
2023/12/18 08:32:39;;;;;;;52.33;30.23;;;7.40;99.90;;;;;;5026122;28;20052;-62
2023/12/18 08:35:08;;;;;;;52.17;29.40;;;7.40;99.90;;;;;;5025301;28;20047;-65
2023/12/18 08:37:34;;;;;;;46.08;28.15;;;7.40;99.90;;;;;;5026549;28;20045;-64
2023/12/18 08:39:59;;;;;;;42.60;28.00;;;7.50;99.90;;;;;;5024309;28;20039;-64
2023/12/18 08:42:25;;;;;;;47.92;28.63;;;7.40;99.90;;;;;;5029771;28;20052;-65
2023/12/18 08:44:51;;;;;;;54.13;29.63;;;7.40;99.90;;;;;;5021274;28;20060;-65
2023/12/18 08:47:17;;;;;;;47.43;30.30;;;7.50;99.90;;;;;;5020539;28;20295;-65
2023/12/18 08:49:42;;;;;;;40.28;29.35;;;7.50;99.90;;;;;;5026751;28;20546;-66
2023/12/18 08:52:08;;;;;;;44.53;29.93;;;7.50;99.90;;;;;;5028758;28;20037;-65
2023/12/18 08:54:33;;;;;;;45.07;29.77;;;7.50;99.90;;;;;;5024524;28;20053;-66
2023/12/18 08:56:59;;;;;;;53.33;30.57;;;7.50;99.90;;;;;;5024719;28;20044;-65
2023/12/18 08:59:25;;;;;;;52.13;31.53;;;7.50;99.90;;;;;;5021226;28;20420;-65
2023/12/18 09:01:51;;;;;;;48.55;31.08;;;7.50;99.90;;;;;;5035754;28;20038;-65
2023/12/18 09:04:17;;;;;;;52.92;32.08;;;7.50;99.90;;;;;;5021494;28;20179;-66
2023/12/18 09:06:42;;;;;;;45.60;30.73;;;7.50;99.90;;;;;;5025875;28;20034;-65
2023/12/18 09:09:08;;;;;;;49.90;32.20;;;7.50;99.90;;;;;;5029070;28;20423;-65
2023/12/18 09:11:35;;;;;;;50.87;31.63;;;7.50;99.90;;;;;;5028535;28;20516;-65
2023/12/18 09:14:03;;;;;;;51.40;32.33;;;7.50;99.90;;;;;;5029947;28;20041;-64
2023/12/18 09:16:28;;;;;;;45.75;31.15;;;7.50;99.90;;;;;;5023244;28;20124;-65
2023/12/18 09:18:54;;;;;;;61.78;32.53;;;7.50;99.90;;;;;;5024791;28;20116;-65
2023/12/18 09:21:20;;;;;;;58.20;31.80;;;7.50;99.90;;;;;;5022507;28;20153;-66
2023/12/18 09:23:45;;;;;;;56.70;32.60;;;7.50;99.90;;;;;;5024075;28;20057;-65
2023/12/18 09:26:14;;;;;;;58.33;34.10;;;7.50;99.90;;;;;;5026233;28;20288;-65
2023/12/18 09:28:40;;;;;;;48.92;32.55;;;7.50;99.90;;;;;;5022062;28;20596;-65
2023/12/18 09:31:06;;;;;;;67.07;32.58;;;7.50;99.90;;;;;;5024015;28;20083;-65
2023/12/18 09:33:33;;;;;;;56.17;32.50;;;7.60;99.90;;;;;;5020312;28;20065;-64
2023/12/18 09:36:02;;;;;;;54.95;33.45;;;7.60;99.90;;;;;;5024125;28;20068;-64
2023/12/18 09:38:28;;;;;;;60.30;33.33;;;7.60;99.90;;;;;;5023980;28;20040;-65
2023/12/18 09:40:53;;;;;;;51.25;31.30;;;7.60;99.90;;;;;;5022398;28;20033;-64
2023/12/18 09:43:20;;;;;;;54.63;32.80;;;7.50;99.90;;;;;;5021700;28;20053;-64
2023/12/18 09:45:47;;;;;;;55.72;32.97;;;7.60;99.90;;;;;;5020348;28;20496;-65
2023/12/18 09:48:18;;;;;;;61.28;34.55;;;7.50;99.90;;;;;;5018719;28;20034;-65
2023/12/18 09:50:45;;;;;;;53.38;33.60;;;7.60;99.90;;;;;;5020819;28;20048;-64
2023/12/18 09:53:14;;;;;;;67.18;34.67;;;7.60;99.90;;;;;;5022934;28;20095;-65
2023/12/18 09:55:40;;;;;;;52.88;33.83;;;7.50;99.90;;;;;;5020283;28;20064;-64
2023/12/18 09:58:06;;;;;;;51.78;31.27;;;7.60;99.90;;;;;;5020518;28;20041;-64
2023/12/18 10:00:32;;;;;;;57.03;32.90;;;7.60;99.90;;;;;;5019125;28;20366;-64
2023/12/18 10:02:59;;;;;;;57.95;34.58;;;7.60;99.90;;;;;;5022856;28;20400;-65
2023/12/18 10:05:26;;;;;;;59.90;33.70;;;7.60;99.90;;;;;;5019170;28;20053;-66
2023/12/18 10:07:53;;;;;;;57.38;33.25;;;7.60;99.90;;;;;;5022543;28;20045;-64
2023/12/18 10:10:20;;;;;;;57.88;33.58;;;7.70;99.90;;;;;;5034180;28;20063;-64
2023/12/18 10:12:47;;;;;;;61.38;34.35;;;7.70;99.90;;;;;;5003001;28;20038;-63
2023/12/18 10:15:12;;;;;;;59.03;34.72;;;7.70;99.90;;;;;;5021540;28;20044;-63
2023/12/18 10:17:42;;;;;;;68.33;33.53;;;7.70;99.90;;;;;;5021319;28;20037;-63
2023/12/18 10:20:09;;;;;;;61.40;33.17;;;7.70;99.90;;;;;;5023149;28;20037;-63
2023/12/18 10:22:35;;;;;;;59.50;33.80;;;7.80;99.90;;;;;;5021424;28;20053;-62
2023/12/18 10:25:02;;;;;;;54.08;32.55;;;7.80;99.90;;;;;;5020587;28;20515;-63
2023/12/18 10:27:36;;;;;;;56.78;33.20;;;7.80;99.90;;;;;;5021872;28;20051;-64
2023/12/18 10:30:01;;;;;;;53.47;31.80;;;7.80;99.90;;;;;;5019754;28;20408;-63
2023/12/18 10:32:27;;;;;;;55.65;32.70;;;7.90;99.90;;;;;;5021572;28;20034;-64
2023/12/18 10:34:57;;;;;;;57.00;31.75;;;7.90;99.90;;;;;;5024243;28;20112;-64
2023/12/18 10:37:26;;;;;;;52.78;31.27;;;7.80;99.90;;;;;;5026670;28;20090;-64
2023/12/18 10:39:59;;;;;;;60.13;31.60;;;7.90;99.90;;;;;;5023630;28;20033;-63
2023/12/18 10:42:33;;;;;;;61.35;30.50;;;7.90;99.90;;;;;;5024984;28;20064;-64
2023/12/18 10:44:59;;;;;;;54.67;32.30;;;7.90;99.90;;;;;;5023481;28;20030;-64
2023/12/18 10:47:30;;;;;;;53.47;31.80;;;7.90;99.90;;;;;;5025721;28;20045;-64
2023/12/18 10:50:01;;;;;;;60.38;32.40;;;7.90;99.90;;;;;;5026078;28;20124;-64
2023/12/18 10:52:32;;;;;;;63.95;32.58;;;7.90;99.90;;;;;;5027594;28;20030;-64
2023/12/18 10:55:03;;;;;;;53.83;33.15;;;7.90;99.90;;;;;;5027560;28;20171;-64
2023/12/18 10:57:29;;;;;;;53.85;32.28;;;7.90;99.90;;;;;;5027088;28;20528;-64
2023/12/18 10:59:57;;;;;;;56.58;34.03;;;7.90;99.90;;;;;;5026884;28;20517;-63
2023/12/18 11:02:24;;;;;;;61.50;33.83;;;7.80;99.90;;;;;;5023936;28;20397;-64
2023/12/18 11:04:50;;;;;;;57.67;31.95;;;7.80;99.90;;;;;;5024966;28;20045;-63
2023/12/18 11:07:16;;;;;;;;;;;7.90;99.90;;;;;;5021044;28;20830;-64
2023/12/18 11:09:44;;;;;;;48.97;30.85;;;7.80;99.90;;;;;;5038572;28;19921;-63
2023/12/18 11:12:11;;;;;;;63.88;31.42;;;7.80;99.90;;;;;;5019714;28;20045;-63
2023/12/18 11:14:58;;;;;;;55.17;32.67;;;7.80;99.90;;;;;;5021475;28;20098;-63
2023/12/18 11:17:39;;;;;;;56.85;31.58;;;7.80;99.90;;;;;;5020460;28;20515;-63
2023/12/18 11:20:30;;;;;;;56.15;32.15;;;7.80;99.90;;;;;;5023256;28;20045;-63
2023/12/18 11:22:56;;;;;;;53.47;31.77;;;7.80;99.90;;;;;;5022589;28;20443;-62
2023/12/18 11:25:30;;;;;;;57.92;32.28;;;7.80;99.90;;;;;;5025139;28;20276;-66
2023/12/18 11:27:56;;;;;;;48.78;30.77;;;7.80;99.90;;;;;;5023726;28;20107;-62
2023/12/18 11:30:30;;;;;;;57.28;29.60;;;7.90;99.90;;;;;;5022733;28;20034;-63
2023/12/18 11:32:57;;;;;;;48.53;30.92;;;7.90;99.90;;;;;;5021073;28;20396;-65
2023/12/18 11:35:29;;;;;;;49.28;29.42;;;7.90;99.90;;;;;;5017903;28;20598;-65
2023/12/18 11:38:14;;;;;;;62.45;31.83;;;7.90;99.90;;;;;;5006069;28;20119;-64
2023/12/18 11:40:49;;;;;;;49.00;29.35;;;8.00;99.90;;;;;;5032831;28;20045;-63
2023/12/18 11:43:38;;;;;;;49.42;30.80;;;8.00;99.90;;;;;;5035647;28;20056;-63
2023/12/18 11:46:08;;;;;;;50.08;30.08;;;8.10;99.90;;;;;;5019072;28;20050;-64
2023/12/18 11:48:34;;;;;;;55.25;30.10;;;8.10;99.90;;;;;;5016804;28;20510;-62
2023/12/18 11:51:02;;;;;;;49.10;27.75;;;8.10;99.90;;;;;;5017057;28;20044;-63
2023/12/18 11:53:33;;;;;;;49.60;28.67;;;8.20;99.90;;;;;;5020817;28;20038;-64
2023/12/18 11:56:01;;;;;;;53.13;28.13;;;8.20;99.90;;;;;;5022711;28;20049;-64
2023/12/18 11:58:27;;;;;;;57.28;27.60;;;8.30;99.90;;;;;;5024318;28;20048;-63
2023/12/18 12:00:56;;;;;;;41.47;26.63;;;8.30;99.90;;;;;;5013636;28;20041;-63
2023/12/18 12:03:22;;;;;;;45.75;28.08;;;8.30;99.90;;;;;;5025777;28;20338;-63
2023/12/18 12:05:48;;;;;;;48.80;28.38;;;8.30;99.90;;;;;;5022851;28;20045;-64
2023/12/18 12:08:14;;;;;;;;;;;8.40;99.90;;;;;;5007249;28;20408;-62
2023/12/18 12:10:45;;;;;;;48.88;28.27;;;8.40;99.90;;;;;;5023410;28;19931;-63
2023/12/18 12:13:23;;;;;;;35.95;25.42;;;8.40;99.90;;;;;;5023285;28;20041;-63
2023/12/18 12:15:57;;;;;;;42.13;26.48;;;8.40;99.90;;;;;;5020044;28;20046;-63
2023/12/18 12:18:28;;;;;;;45.22;26.13;;;8.40;99.90;;;;;;5003240;28;20044;-64
2023/12/18 12:20:54;;;;;;;45.17;27.02;;;8.40;99.90;;;;;;5020826;28;20052;-65
2023/12/18 12:23:20;;;;;;;45.00;25.20;;;8.40;99.90;;;;;;5023327;28;20040;-64
2023/12/18 12:25:48;;;;;;;45.17;25.95;;;8.40;99.90;;;;;;5019101;28;20037;-63
2023/12/18 12:28:17;;;;;;;42.30;25.90;;;8.40;99.90;;;;;;5002570;28;20041;-63
2023/12/18 12:30:43;;;;;;;44.78;23.73;;;8.40;99.90;;;;;;5033517;28;20113;-63
2023/12/18 12:33:10;;;;;;;39.47;24.92;;;8.50;99.90;;;;;;5022606;28;20056;-64
2023/12/18 12:35:36;;;;;;;40.22;25.52;;;8.50;99.90;;;;;;5018238;28;20038;-64